Jose de Freitas, Brazil
Current Conditions -  °F | °C
As of 1:00 PM on Wednesday 28 Jan 2015 (Local Time) from SBTE Reporting Station
Scattered Clouds Scattered Clouds  
Wind Chill: 95°   Ceiling: Unl
Heat Index: 97°   Visibility: 6mi
Dew Point: 64°   Wind: 8mph
Humidity: 36%   Direction: 130°SE
Pressure: 29.83"   Gusts: NA
Location:  4.76°S, 42.58°W
Report Text: SBTE 281600Z 13007KT 9999 SCT030 35/18 Q1010
Loading
Personal Weather Stations






























Interactive Weather Map New forecast layout! Learn more

10-Day Weather Forecast

Advertisements
Track Severe Weather on mobile